sensor_id;sensor_type;location;lat;lon;timestamp;pressure;altitude;pressure_sealevel;temperature;humidity
34921;BME280;21128;50.016;20.002;2023-02-17T00:01:24;99462.55;;;2.63;92.63
34921;BME280;21128;50.016;20.002;2023-02-17T00:03:52;99468.58;;;2.64;93.09
34921;BME280;21128;50.016;20.002;2023-02-17T00:06:22;99466.81;;;2.64;93.16
34921;BME280;21128;50.016;20.002;2023-02-17T00:08:50;99454.77;;;2.63;93.12
34921;BME280;21128;50.016;20.002;2023-02-17T00:11:18;99463.55;;;2.61;92.50
34921;BME280;21128;50.016;20.002;2023-02-17T00:13:46;99466.14;;;2.61;93.41
34921;BME280;21128;50.016;20.002;2023-02-17T00:16:19;99461.09;;;2.58;93.53
34921;BME280;21128;50.016;20.002;2023-02-17T00:18:51;99458.49;;;2.58;93.01
34921;BME280;21128;50.016;20.002;2023-02-17T00:21:20;99462.01;;;2.57;93.74
34921;BME280;21128;50.016;20.002;2023-02-17T00:23:49;99462.92;;;2.56;93.26
34921;BME280;21128;50.016;20.002;2023-02-17T00:26:17;99458.66;;;2.54;93.68
34921;BME280;21128;50.016;20.002;2023-02-17T00:28:45;99459.58;;;2.53;93.44
34921;BME280;21128;50.016;20.002;2023-02-17T00:31:21;99456.20;;;2.51;93.26
34921;BME280;21128;50.016;20.002;2023-02-17T00:33:48;99450.25;;;2.49;93.49
34921;BME280;21128;50.016;20.002;2023-02-17T00:36:18;99455.52;;;2.48;93.34
34921;BME280;21128;50.016;20.002;2023-02-17T00:38:47;99444.39;;;2.46;93.46
34921;BME280;21128;50.016;20.002;2023-02-17T00:41:15;99448.74;;;2.45;93.31
34921;BME280;21128;50.016;20.002;2023-02-17T00:43:42;99445.31;;;2.45;93.71
34921;BME280;21128;50.016;20.002;2023-02-17T00:46:09;99439.42;;;2.41;93.83
34921;BME280;21128;50.016;20.002;2023-02-17T00:48:37;99441.26;;;2.39;93.51
34921;BME280;21128;50.016;20.002;2023-02-17T00:51:04;99438.04;;;2.34;93.95
34921;BME280;21128;50.016;20.002;2023-02-17T00:53:32;99435.53;;;2.33;94.63
34921;BME280;21128;50.016;20.002;2023-02-17T00:55:59;99422.56;;;2.33;95.35
34921;BME280;21128;50.016;20.002;2023-02-17T00:58:26;99424.48;;;2.29;95.37
34921;BME280;21128;50.016;20.002;2023-02-17T01:00:57;99427.99;;;2.28;95.77
34921;BME280;21128;50.016;20.002;2023-02-17T01:03:25;99416.91;;;2.24;96.21
34921;BME280;21128;50.016;20.002;2023-02-17T01:05:53;99409.38;;;2.20;97.26
34921;BME280;21128;50.016;20.002;2023-02-17T01:08:21;99422.47;;;2.17;96.88
34921;BME280;21128;50.016;20.002;2023-02-17T01:10:49;99418.37;;;2.13;96.71
34921;BME280;21128;50.016;20.002;2023-02-17T01:13:18;99421.04;;;2.11;97.57
34921;BME280;21128;50.016;20.002;2023-02-17T01:15:50;99410.04;;;2.06;97.55
34921;BME280;21128;50.016;20.002;2023-02-17T01:18:20;99406.70;;;2.04;97.34
34921;BME280;21128;50.016;20.002;2023-02-17T01:20:48;99403.27;;;2.04;97.37
34921;BME280;21128;50.016;20.002;2023-02-17T01:23:15;99400.75;;;2.02;98.28
34921;BME280;21128;50.016;20.002;2023-02-17T01:25:45;99392.19;;;2.00;98.61
34921;BME280;21128;50.016;20.002;2023-02-17T01:28:18;99387.92;;;1.99;98.34
34921;BME280;21128;50.016;20.002;2023-02-17T01:30:46;99388.92;;;1.96;98.42
34921;BME280;21128;50.016;20.002;2023-02-17T01:33:14;99380.31;;;1.96;98.76
34921;BME280;21128;50.016;20.002;2023-02-17T01:35:41;99371.61;;;1.97;98.76
34921;BME280;21128;50.016;20.002;2023-02-17T01:38:08;99375.13;;;1.96;98.51
34921;BME280;21128;50.016;20.002;2023-02-17T01:40:35;99371.83;;;1.92;99.08
34921;BME280;21128;50.016;20.002;2023-02-17T01:43:03;99365.88;;;1.90;98.21
34921;BME280;21128;50.016;20.002;2023-02-17T01:45:42;99368.48;;;1.90;99.02
34921;BME280;21128;50.016;20.002;2023-02-17T01:48:15;99359.95;;;1.88;98.58
34921;BME280;21128;50.016;20.002;2023-02-17T01:51:25;99354.05;;;1.85;98.50
34921;BME280;21128;50.016;20.002;2023-02-17T01:53:58;99346.52;;;1.80;98.46
34921;BME280;21128;50.016;20.002;2023-02-17T01:56:30;99348.36;;;1.78;98.65
34921;BME280;21128;50.016;20.002;2023-02-17T01:59:03;99343.30;;;1.75;99.05
34921;BME280;21128;50.016;20.002;2023-02-17T02:01:31;99351.23;;;1.72;98.99
34921;BME280;21128;50.016;20.002;2023-02-17T02:04:02;99354.82;;;1.69;99.34
34921;BME280;21128;50.016;20.002;2023-02-17T02:06:33;99351.68;;;1.63;99.58
34921;BME280;21128;50.016;20.002;2023-02-17T02:09:08;99349.25;;;1.60;99.80
34921;BME280;21128;50.016;20.002;2023-02-17T02:11:37;99342.36;;;1.59;99.91
34921;BME280;21128;50.016;20.002;2023-02-17T02:14:06;99340.56;;;1.61;100.00
34921;BME280;21128;50.016;20.002;2023-02-17T02:22:17;99348.85;;;1.67;100.00
34921;BME280;21128;50.016;20.002;2023-02-17T02:33:42;99345.61;;;1.81;100.00
34921;BME280;21128;50.016;20.002;2023-02-17T02:36:42;99345.52;;;1.83;100.00
34921;BME280;21128;50.016;20.002;2023-02-17T02:39:16;99351.46;;;1.85;100.00
34921;BME280;21128;50.016;20.002;2023-02-17T02:41:50;99360.02;;;1.87;100.00
34921;BME280;21128;50.016;20.002;2023-02-17T02:44:21;99353.09;;;1.87;100.00
34921;BME280;21128;50.016;20.002;2023-02-17T02:47:06;99354.84;;;1.87;100.00
34921;BME280;21128;50.016;20.002;2023-02-17T02:49:35;99360.78;;;1.89;100.00
34921;BME280;21128;50.016;20.002;2023-02-17T02:54:51;99349.28;;;1.94;100.00
34921;BME280;21128;50.016;20.002;2023-02-17T03:03:19;99344.23;;;2.09;100.00
34921;BME280;21128;50.016;20.002;2023-02-17T03:11:01;99344.10;;;2.12;100.00
34921;BME280;21128;50.016;20.002;2023-02-17T03:13:32;99348.37;;;2.13;100.00
34921;BME280;21128;50.016;20.002;2023-02-17T03:15:59;99341.51;;;2.12;100.00
34921;BME280;21128;50.016;20.002;2023-02-17T03:18:27;99336.41;;;2.10;100.00
34921;BME280;21128;50.016;20.002;2023-02-17T03:20:58;99335.53;;;2.10;100.00
34921;BME280;21128;50.016;20.002;2023-02-17T03:23:26;99331.06;;;2.13;100.00
34921;BME280;21128;50.016;20.002;2023-02-17T03:25:53;99333.56;;;2.15;100.00
34921;BME280;21128;50.016;20.002;2023-02-17T03:28:21;99338.00;;;2.13;100.00
34921;BME280;21128;50.016;20.002;2023-02-17T03:30:48;99337.24;;;2.11;100.00
34921;BME280;21128;50.016;20.002;2023-02-17T03:33:15;99337.37;;;2.08;100.00
34921;BME280;21128;50.016;20.002;2023-02-17T03:35:42;99330.52;;;2.07;100.00
34921;BME280;21128;50.016;20.002;2023-02-17T03:38:09;99335.70;;;2.07;100.00
34921;BME280;21128;50.016;20.002;2023-02-17T03:40:36;99330.77;;;2.02;100.00
34921;BME280;21128;50.016;20.002;2023-02-17T03:43:04;99326.72;;;1.96;100.00
34921;BME280;21128;50.016;20.002;2023-02-17T03:45:31;99330.22;;;1.95;100.00
34921;BME280;21128;50.016;20.002;2023-02-17T03:47:58;99325.13;;;1.94;100.00
34921;BME280;21128;50.016;20.002;2023-02-17T03:50:25;99322.58;;;1.92;100.00
34921;BME280;21128;50.016;20.002;2023-02-17T03:52:52;99326.09;;;1.91;100.00
34921;BME280;21128;50.016;20.002;2023-02-17T03:55:19;99325.34;;;1.89;100.00
34921;BME280;21128;50.016;20.002;2023-02-17T03:57:47;99334.11;;;1.87;100.00
34921;BME280;21128;50.016;20.002;2023-02-17T04:00:14;99323.95;;;1.82;100.00
34921;BME280;21128;50.016;20.002;2023-02-17T04:02:41;99321.37;;;1.82;100.00
34921;BME280;21128;50.016;20.002;2023-02-17T04:05:09;99320.53;;;1.82;100.00
34921;BME280;21128;50.016;20.002;2023-02-17T04:07:36;99327.39;;;1.83;100.00
34921;BME280;21128;50.016;20.002;2023-02-17T04:10:04;99318.69;;;1.84;100.00
34921;BME280;21128;50.016;20.002;2023-02-17T04:12:31;99306.58;;;1.84;100.00
34921;BME280;21128;50.016;20.002;2023-02-17T04:14:58;99300.50;;;1.85;100.00
34921;BME280;21128;50.016;20.002;2023-02-17T04:17:25;99307.20;;;1.89;100.00
34921;BME280;21128;50.016;20.002;2023-02-17T04:19:52;99308.73;;;1.93;100.00
34921;BME280;21128;50.016;20.002;2023-02-17T04:22:20;99300.87;;;1.95;100.00
34921;BME280;21128;50.016;20.002;2023-02-17T04:24:47;99304.98;;;1.99;100.00
34921;BME280;21128;50.016;20.002;2023-02-17T04:27:14;99306.52;;;2.03;100.00
34921;BME280;21128;50.016;20.002;2023-02-17T04:29:41;99309.03;;;2.05;100.00
34921;BME280;21128;50.016;20.002;2023-02-17T04:32:08;99314.21;;;2.05;100.00
34921;BME280;21128;50.016;20.002;2023-02-17T04:34:35;99314.97;;;2.07;100.00
34921;BME280;21128;50.016;20.002;2023-02-17T04:37:03;99307.19;;;2.07;100.00
34921;BME280;21128;50.016;20.002;2023-02-17T04:39:30;99313.97;;;2.09;100.00
34921;BME280;21128;50.016;20.002;2023-02-17T04:41:57;99306.13;;;2.11;100.00
34921;BME280;21128;50.016;20.002;2023-02-17T04:44:24;99294.67;;;2.15;100.00
34921;BME280;21128;50.016;20.002;2023-02-17T04:46:52;99288.44;;;2.19;100.00
34921;BME280;21128;50.016;20.002;2023-02-17T04:49:19;99285.59;;;2.23;100.00
34921;BME280;21128;50.016;20.002;2023-02-17T04:51:46;99281.10;;;2.27;100.00
34921;BME280;21128;50.016;20.002;2023-02-17T04:54:13;99283.53;;;2.30;100.00
34921;BME280;21128;50.016;20.002;2023-02-17T04:56:43;99289.47;;;2.32;100.00
34921;BME280;21128;50.016;20.002;2023-02-17T04:59:10;99292.05;;;2.32;100.00
34921;BME280;21128;50.016;20.002;2023-02-17T05:01:37;99288.62;;;2.32;100.00
34921;BME280;21128;50.016;20.002;2023-02-17T05:04:05;99290.22;;;2.34;100.00
34921;BME280;21128;50.016;20.002;2023-02-17T05:06:32;99292.80;;;2.34;100.00
34921;BME280;21128;50.016;20.002;2023-02-17T05:08:59;99297.16;;;2.34;100.00
34921;BME280;21128;50.016;20.002;2023-02-17T05:11:26;99303.18;;;2.34;100.00
34921;BME280;21128;50.016;20.002;2023-02-17T05:13:54;99294.42;;;2.37;100.00
34921;BME280;21128;50.016;20.002;2023-02-17T05:16:21;99289.16;;;2.38;100.00
34921;BME280;21128;50.016;20.002;2023-02-17T05:18:48;99288.98;;;2.41;100.00
34921;BME280;21128;50.016;20.002;2023-02-17T05:21:15;99281.95;;;2.43;100.00
34921;BME280;21128;50.016;20.002;2023-02-17T05:23:42;99278.47;;;2.44;100.00
34921;BME280;21128;50.016;20.002;2023-02-17T05:26:10;99280.14;;;2.45;100.00
34921;BME280;21128;50.016;20.002;2023-02-17T05:28:37;99274.03;;;2.46;100.00
34921;BME280;21128;50.016;20.002;2023-02-17T05:31:04;99274.78;;;2.48;100.00
34921;BME280;21128;50.016;20.002;2023-02-17T05:33:32;99273.86;;;2.49;100.00
34921;BME280;21128;50.016;20.002;2023-02-17T05:36:07;99284.00;;;2.54;100.00
34921;BME280;21128;50.016;20.002;2023-02-17T05:38:36;99270.95;;;2.56;100.00
34921;BME280;21128;50.016;20.002;2023-02-17T05:41:03;99272.45;;;2.60;100.00
34921;BME280;21128;50.016;20.002;2023-02-17T05:43:30;99272.39;;;2.61;100.00
34921;BME280;21128;50.016;20.002;2023-02-17T05:46:02;99278.41;;;2.62;99.71
34921;BME280;21128;50.016;20.002;2023-02-17T05:48:29;99287.88;;;2.63;100.00
34921;BME280;21128;50.016;20.002;2023-02-17T05:51:05;99282.77;;;2.61;100.00
34921;BME280;21128;50.016;20.002;2023-02-17T05:53:33;99282.69;;;2.63;100.00
34921;BME280;21128;50.016;20.002;2023-02-17T05:56:00;99287.70;;;2.66;99.74
34921;BME280;21128;50.016;20.002;2023-02-17T05:58:27;99288.45;;;2.68;99.63
34921;BME280;21128;50.016;20.002;2023-02-17T06:00:54;99278.84;;;2.70;100.00
34921;BME280;21128;50.016;20.002;2023-02-17T06:03:21;99275.24;;;2.72;100.00
34921;BME280;21128;50.016;20.002;2023-02-17T06:05:49;99274.14;;;2.76;99.55
34921;BME280;21128;50.016;20.002;2023-02-17T06:08:16;99275.67;;;2.80;100.00
34921;BME280;21128;50.016;20.002;2023-02-17T06:10:43;99257.32;;;2.83;99.65
34921;BME280;21128;50.016;20.002;2023-02-17T06:13:10;99264.13;;;2.86;99.47
34921;BME280;21128;50.016;20.002;2023-02-17T06:15:37;99263.20;;;2.87;98.67
34921;BME280;21128;50.016;20.002;2023-02-17T06:18:05;99253.05;;;2.82;98.45
34921;BME280;21128;50.016;20.002;2023-02-17T06:20:32;99249.62;;;2.82;98.69
34921;BME280;21128;50.016;20.002;2023-02-17T06:22:59;99239.98;;;2.84;99.15
34921;BME280;21128;50.016;20.002;2023-02-17T06:25:26;99240.77;;;2.86;98.28
34921;BME280;21128;50.016;20.002;2023-02-17T06:27:53;99244.86;;;2.90;98.62
34921;BME280;21128;50.016;20.002;2023-02-17T06:30:21;99249.81;;;2.95;99.05
34921;BME280;21128;50.016;20.002;2023-02-17T06:32:49;99247.03;;;2.98;99.21
34921;BME280;21128;50.016;20.002;2023-02-17T06:35:16;99230.34;;;3.02;99.14
34921;BME280;21128;50.016;20.002;2023-02-17T06:37:43;99232.80;;;3.05;99.13
34921;BME280;21128;50.016;20.002;2023-02-17T06:40:11;99223.90;;;3.09;99.19
34921;BME280;21128;50.016;20.002;2023-02-17T06:42:39;99221.15;;;3.12;98.35
34921;BME280;21128;50.016;20.002;2023-02-17T06:45:06;99227.83;;;3.16;99.29
34921;BME280;21128;50.016;20.002;2023-02-17T06:47:34;99227.59;;;3.21;98.15
34921;BME280;21128;50.016;20.002;2023-02-17T06:50:02;99225.55;;;3.26;99.02
34921;BME280;21128;50.016;20.002;2023-02-17T06:52:29;99229.75;;;3.28;97.79
34921;BME280;21128;50.016;20.002;2023-02-17T06:54:56;99230.41;;;3.32;98.66
34921;BME280;21128;50.016;20.002;2023-02-17T06:57:23;99237.17;;;3.34;98.04
34921;BME280;21128;50.016;20.002;2023-02-17T06:59:51;99246.39;;;3.40;97.48
34921;BME280;21128;50.016;20.002;2023-02-17T07:02:18;99246.11;;;3.45;97.92
34921;BME280;21128;50.016;20.002;2023-02-17T07:04:46;99245.77;;;3.51;98.67
34921;BME280;21128;50.016;20.002;2023-02-17T07:07:13;99248.86;;;3.57;98.14
34921;BME280;21128;50.016;20.002;2023-02-17T07:09:40;99249.16;;;3.67;98.85
34921;BME280;21128;50.016;20.002;2023-02-17T07:12:07;99244.95;;;3.80;98.11
34921;BME280;21128;50.016;20.002;2023-02-17T07:14:35;99253.58;;;3.95;98.32
34921;BME280;21128;50.016;20.002;2023-02-17T07:17:02;99258.72;;;4.11;97.59
34921;BME280;21128;50.016;20.002;2023-02-17T07:19:29;99251.03;;;4.23;97.05
34921;BME280;21128;50.016;20.002;2023-02-17T07:21:56;99261.62;;;4.35;97.78
34921;BME280;21128;50.016;20.002;2023-02-17T07:24:24;99266.46;;;4.41;97.09
34921;BME280;21128;50.016;20.002;2023-02-17T07:26:51;99261.99;;;4.43;97.16
34921;BME280;21128;50.016;20.002;2023-02-17T07:29:22;99246.38;;;4.43;96.28
34921;BME280;21128;50.016;20.002;2023-02-17T07:31:49;99241.84;;;4.46;96.96
34921;BME280;21128;50.016;20.002;2023-02-17T07:34:16;99249.92;;;4.56;95.51
34921;BME280;21128;50.016;20.002;2023-02-17T07:36:43;99246.75;;;4.65;95.47
34921;BME280;21128;50.016;20.002;2023-02-17T07:39:10;99248.05;;;4.72;95.54
34921;BME280;21128;50.016;20.002;2023-02-17T07:41:37;99252.78;;;4.80;96.06
34921;BME280;21128;50.016;20.002;2023-02-17T07:44:04;99253.14;;;4.88;95.25
34921;BME280;21128;50.016;20.002;2023-02-17T07:46:31;99249.19;;;4.95;95.26
34921;BME280;21128;50.016;20.002;2023-02-17T07:48:58;99246.30;;;5.00;94.93
34921;BME280;21128;50.016;20.002;2023-02-17T07:51:25;99242.56;;;5.04;95.22
34921;BME280;21128;50.016;20.002;2023-02-17T07:53:52;99231.97;;;5.07;94.78
34921;BME280;21128;50.016;20.002;2023-02-17T07:56:21;99226.38;;;5.13;94.95
34921;BME280;21128;50.016;20.002;2023-02-17T07:58:49;99228.45;;;5.21;93.95
34921;BME280;21128;50.016;20.002;2023-02-17T08:01:19;99217.65;;;5.27;94.06
34921;BME280;21128;50.016;20.002;2023-02-17T08:03:47;99217.16;;;5.34;94.38
34921;BME280;21128;50.016;20.002;2023-02-17T08:06:17;99207.28;;;5.40;93.59
34921;BME280;21128;50.016;20.002;2023-02-17T08:08:46;99213.55;;;5.50;93.95
34921;BME280;21128;50.016;20.002;2023-02-17T08:11:32;99208.34;;;5.62;93.98
34921;BME280;21128;50.016;20.002;2023-02-17T08:14:20;99199.83;;;5.73;92.83
34921;BME280;21128;50.016;20.002;2023-02-17T08:16:48;99196.61;;;5.82;93.05
34921;BME280;21128;50.016;20.002;2023-02-17T08:19:15;99189.74;;;5.94;92.43
34921;BME280;21128;50.016;20.002;2023-02-17T08:21:42;99190.89;;;6.03;92.82
34921;BME280;21128;50.016;20.002;2023-02-17T08:24:09;99186.81;;;6.11;92.61
34921;BME280;21128;50.016;20.002;2023-02-17T08:26:36;99186.06;;;6.22;92.08
34921;BME280;21128;50.016;20.002;2023-02-17T08:29:03;99174.19;;;6.31;91.29
34921;BME280;21128;50.016;20.002;2023-02-17T08:31:32;99178.65;;;6.41;91.98
34921;BME280;21128;50.016;20.002;2023-02-17T08:34:05;99185.60;;;6.54;92.15
34921;BME280;21128;50.016;20.002;2023-02-17T08:36:33;99182.75;;;6.69;91.90
34921;BME280;21128;50.016;20.002;2023-02-17T08:39:05;99180.47;;;6.89;91.75
34921;BME280;21128;50.016;20.002;2023-02-17T08:41:35;99187.61;;;7.11;90.81
34921;BME280;21128;50.016;20.002;2023-02-17T08:44:07;99188.98;;;7.27;90.10
34921;BME280;21128;50.016;20.002;2023-02-17T08:46:35;99181.56;;;7.45;90.10
34921;BME280;21128;50.016;20.002;2023-02-17T08:49:04;99174.25;;;7.61;89.53
34921;BME280;21128;50.016;20.002;2023-02-17T08:51:32;99160.72;;;7.79;89.93
34921;BME280;21128;50.016;20.002;2023-02-17T08:54:00;99159.56;;;8.05;90.02
34921;BME280;21128;50.016;20.002;2023-02-17T08:56:28;99156.48;;;8.34;89.33
34921;BME280;21128;50.016;20.002;2023-02-17T08:58:55;99163.88;;;8.51;87.61
34921;BME280;21128;50.016;20.002;2023-02-17T09:01:22;99167.05;;;8.66;85.77
34921;BME280;21128;50.016;20.002;2023-02-17T09:03:51;99163.08;;;8.83;85.25
34921;BME280;21128;50.016;20.002;2023-02-17T09:06:19;99157.83;;;8.94;84.95
34921;BME280;21128;50.016;20.002;2023-02-17T09:08:48;99156.38;;;9.01;84.37
34921;BME280;21128;50.016;20.002;2023-02-17T09:11:16;99164.24;;;9.01;83.77
34921;BME280;21128;50.016;20.002;2023-02-17T09:13:45;99157.83;;;8.94;83.96
34921;BME280;21128;50.016;20.002;2023-02-17T09:16:12;99155.44;;;8.91;82.86
34921;BME280;21128;50.016;20.002;2023-02-17T09:18:39;99160.10;;;8.87;83.28
34921;BME280;21128;50.016;20.002;2023-02-17T09:21:09;99154.16;;;8.85;84.28
34921;BME280;21128;50.016;20.002;2023-02-17T09:23:37;99147.36;;;8.83;83.69
34921;BME280;21128;50.016;20.002;2023-02-17T09:26:07;99152.16;;;8.78;82.94
34921;BME280;21128;50.016;20.002;2023-02-17T09:28:36;99148.09;;;8.73;81.71
34921;BME280;21128;50.016;20.002;2023-02-17T09:31:14;99138.35;;;8.76;81.82
34921;BME280;21128;50.016;20.002;2023-02-17T09:33:42;99137.39;;;8.77;82.20
34921;BME280;21128;50.016;20.002;2023-02-17T09:36:12;99132.85;;;8.79;80.53
34921;BME280;21128;50.016;20.002;2023-02-17T09:38:40;99130.49;;;8.76;81.12
34921;BME280;21128;50.016;20.002;2023-02-17T09:41:23;99122.63;;;8.76;81.49
34921;BME280;21128;50.016;20.002;2023-02-17T09:43:53;99128.83;;;8.74;81.20
34921;BME280;21128;50.016;20.002;2023-02-17T09:46:41;99125.25;;;8.76;81.81
34921;BME280;21128;50.016;20.002;2023-02-17T09:49:14;99123.46;;;8.76;82.05
34921;BME280;21128;50.016;20.002;2023-02-17T09:51:54;99107.61;;;8.78;82.59
34921;BME280;21128;50.016;20.002;2023-02-17T09:54:33;99103.56;;;8.73;82.65
34921;BME280;21128;50.016;20.002;2023-02-17T09:57:05;99119.18;;;8.75;83.02
34921;BME280;21128;50.016;20.002;2023-02-17T09:59:44;99116.66;;;8.73;82.52
34921;BME280;21128;50.016;20.002;2023-02-17T10:02:24;99117.62;;;8.72;83.21
34921;BME280;21128;50.016;20.002;2023-02-17T10:04:54;99122.98;;;8.71;83.30
34921;BME280;21128;50.016;20.002;2023-02-17T10:07:28;99124.20;;;8.67;84.05
34921;BME280;21128;50.016;20.002;2023-02-17T10:10:27;99124.20;;;8.67;84.29
34921;BME280;21128;50.016;20.002;2023-02-17T10:12:59;99117.66;;;8.61;84.15
34921;BME280;21128;50.016;20.002;2023-02-17T10:15:31;99114.56;;;8.56;84.15
34921;BME280;21128;50.016;20.002;2023-02-17T10:18:09;99106.12;;;8.53;84.68
34921;BME280;21128;50.016;20.002;2023-02-17T10:20:59;99102.68;;;8.52;84.81
34921;BME280;21128;50.016;20.002;2023-02-17T10:23:28;99100.06;;;8.52;85.70
34921;BME280;21128;50.016;20.002;2023-02-17T10:26:07;99091.38;;;8.52;85.09
34921;BME280;21128;50.016;20.002;2023-02-17T10:28:50;99083.39;;;8.53;85.92
34921;BME280;21128;50.016;20.002;2023-02-17T10:34:37;99086.70;;;8.55;85.43
34921;BME280;21128;50.016;20.002;2023-02-17T10:37:21;99076.00;;;8.58;85.59
34921;BME280;21128;50.016;20.002;2023-02-17T10:39:55;99073.48;;;8.57;82.77
34921;BME280;21128;50.016;20.002;2023-02-17T10:42:27;99069.59;;;8.51;82.69
34921;BME280;21128;50.016;20.002;2023-02-17T10:45:03;99078.63;;;8.47;83.44
34921;BME280;21128;50.016;20.002;2023-02-17T10:47:34;99068.98;;;8.48;84.41
34921;BME280;21128;50.016;20.002;2023-02-17T10:50:05;99070.64;;;8.49;83.97
34921;BME280;21128;50.016;20.002;2023-02-17T10:52:38;99073.17;;;8.50;84.42
34921;BME280;21128;50.016;20.002;2023-02-17T10:55:54;99056.50;;;8.51;84.82
34921;BME280;21128;50.016;20.002;2023-02-17T10:58:02;99073.74;;;8.54;84.98
34921;BME280;21128;50.016;20.002;2023-02-17T11:00:31;99049.34;;;8.53;85.37
34921;BME280;21128;50.016;20.002;2023-02-17T11:02:58;99045.63;;;8.56;85.74
34921;BME280;21128;50.016;20.002;2023-02-17T11:05:32;99049.81;;;8.58;86.33
34921;BME280;21128;50.016;20.002;2023-02-17T11:08:06;99040.03;;;8.60;86.42
34921;BME280;21128;50.016;20.002;2023-02-17T11:10:39;99040.37;;;8.67;86.39
34921;BME280;21128;50.016;20.002;2023-02-17T11:13:33;99033.91;;;8.71;86.20
34921;BME280;21128;50.016;20.002;2023-02-17T11:16:01;99042.16;;;8.66;85.46
34921;BME280;21128;50.016;20.002;2023-02-17T11:18:32;99027.90;;;8.59;86.60
34921;BME280;21128;50.016;20.002;2023-02-17T11:21:05;99021.23;;;8.55;86.78
34921;BME280;21128;50.016;20.002;2023-02-17T11:23:47;99009.80;;;8.56;87.15
34921;BME280;21128;50.016;20.002;2023-02-17T11:26:23;99008.73;;;8.59;86.78
34921;BME280;21128;50.016;20.002;2023-02-17T11:28:52;99002.06;;;8.55;86.84
34921;BME280;21128;50.016;20.002;2023-02-17T11:31:25;99001.37;;;8.53;87.80
34921;BME280;21128;50.016;20.002;2023-02-17T11:33:53;99000.90;;;8.48;87.56
34921;BME280;21128;50.016;20.002;2023-02-17T11:36:30;99001.78;;;8.37;87.84
34921;BME280;21128;50.016;20.002;2023-02-17T11:38:58;99000.70;;;8.28;87.61
34921;BME280;21128;50.016;20.002;2023-02-17T11:41:26;99012.75;;;8.19;86.96
34921;BME280;21128;50.016;20.002;2023-02-17T11:44:03;99004.92;;;8.08;87.67
34921;BME280;21128;50.016;20.002;2023-02-17T11:46:54;99004.70;;;8.00;87.91
34921;BME280;21128;50.016;20.002;2023-02-17T12:06:21;98953.94;;;7.92;90.24
34921;BME280;21128;50.016;20.002;2023-02-17T12:17:47;98948.80;;;7.90;89.47
34921;BME280;21128;50.016;20.002;2023-02-17T12:26:13;98952.59;;;7.97;89.00
34921;BME280;21128;50.016;20.002;2023-02-17T12:34:39;98933.53;;;8.06;89.41
34921;BME280;21128;50.016;20.002;2023-02-17T12:37:19;98945.17;;;8.13;88.12
34921;BME280;21128;50.016;20.002;2023-02-17T12:40:06;98930.77;;;8.19;88.92
34921;BME280;21128;50.016;20.002;2023-02-17T12:42:42;98928.72;;;8.23;87.81
34921;BME280;21128;50.016;20.002;2023-02-17T12:45:19;98939.19;;;8.23;88.03
34921;BME280;21128;50.016;20.002;2023-02-17T12:47:58;98934.78;;;8.23;87.86
34921;BME280;21128;50.016;20.002;2023-02-17T12:50:41;98926.49;;;8.18;87.04
34921;BME280;21128;50.016;20.002;2023-02-17T12:53:20;98925.66;;;8.17;88.26
34921;BME280;21128;50.016;20.002;2023-02-17T12:55:54;98921.13;;;8.19;88.01
34921;BME280;21128;50.016;20.002;2023-02-17T12:58:24;98910.30;;;8.24;88.38
34921;BME280;21128;50.016;20.002;2023-02-17T13:01:02;98918.16;;;8.24;87.34
34921;BME280;21128;50.016;20.002;2023-02-17T13:03:32;98919.81;;;8.25;88.05
34921;BME280;21128;50.016;20.002;2023-02-17T13:08:54;98913.35;;;8.29;87.84
34921;BME280;21128;50.016;20.002;2023-02-17T13:11:29;98924.22;;;8.25;87.56
34921;BME280;21128;50.016;20.002;2023-02-17T13:13:56;98911.95;;;8.25;87.48
34921;BME280;21128;50.016;20.002;2023-02-17T13:16:24;98909.20;;;8.27;88.30
34921;BME280;21128;50.016;20.002;2023-02-17T13:18:54;98908.51;;;8.25;87.56
34921;BME280;21128;50.016;20.002;2023-02-17T13:24:12;98892.20;;;8.21;87.12
34921;BME280;21128;50.016;20.002;2023-02-17T13:26:43;98896.87;;;8.17;86.51
34921;BME280;21128;50.016;20.002;2023-02-17T13:29:31;98885.67;;;8.15;87.48
34921;BME280;21128;50.016;20.002;2023-02-17T13:32:01;98883.19;;;8.14;87.65
34921;BME280;21128;50.016;20.002;2023-02-17T13:34:35;98885.94;;;8.12;87.34
34921;BME280;21128;50.016;20.002;2023-02-17T13:37:36;98883.19;;;8.14;88.39
34921;BME280;21128;50.016;20.002;2023-02-17T13:43:16;98877.12;;;8.13;88.69
34921;BME280;21128;50.016;20.002;2023-02-17T13:45:58;98869.14;;;8.15;88.61
34921;BME280;21128;50.016;20.002;2023-02-17T13:48:27;98862.02;;;8.17;88.56
34921;BME280;21128;50.016;20.002;2023-02-17T13:51:06;98854.27;;;8.15;88.18
34921;BME280;21128;50.016;20.002;2023-02-17T13:53:40;98852.51;;;8.16;87.95
34921;BME280;21128;50.016;20.002;2023-02-17T13:56:10;98850.72;;;8.16;88.60
34921;BME280;21128;50.016;20.002;2023-02-17T13:58:39;98842.97;;;8.15;88.29
34921;BME280;21128;50.016;20.002;2023-02-17T14:01:13;98842.97;;;8.15;88.02
34921;BME280;21128;50.016;20.002;2023-02-17T14:03:46;98841.08;;;8.17;88.47
34921;BME280;21128;50.016;20.002;2023-02-17T14:06:27;98826.20;;;8.17;88.61
34921;BME280;21128;50.016;20.002;2023-02-17T14:08:55;98824.28;;;8.19;87.79
34921;BME280;21128;50.016;20.002;2023-02-17T14:11:27;98812.72;;;8.22;87.75
34921;BME280;21128;50.016;20.002;2023-02-17T14:13:55;98812.58;;;8.24;88.26
34921;BME280;21128;50.016;20.002;2023-02-17T14:16:43;98812.58;;;8.24;87.45
34921;BME280;21128;50.016;20.002;2023-02-17T14:19:14;98810.83;;;8.24;88.42
34921;BME280;21128;50.016;20.002;2023-02-17T14:22:03;98795.67;;;8.28;87.82
34921;BME280;21128;50.016;20.002;2023-02-17T14:24:32;98793.62;;;8.31;88.25
34921;BME280;21128;50.016;20.002;2023-02-17T14:27:04;98776.95;;;8.32;88.21
34921;BME280;21128;50.016;20.002;2023-02-17T14:29:42;98795.90;;;8.36;88.15
34921;BME280;21128;50.016;20.002;2023-02-17T14:32:33;98793.97;;;8.38;87.58
34921;BME280;21128;50.016;20.002;2023-02-17T14:35:18;98780.87;;;8.38;87.84